createdAt,value
2023-04-14T00:00:09.073Z,100.70
2023-04-14T00:00:59.142Z,98.04
2023-04-14T00:01:49.248Z,97.56
2023-04-14T00:02:39.419Z,101.01
2023-04-14T00:03:29.516Z,100.74
2023-04-14T00:04:20.081Z,100.27
2023-04-14T00:05:09.730Z,101.77
2023-04-14T00:05:59.762Z,101.25
2023-04-14T00:06:49.770Z,103.46
2023-04-14T00:07:39.822Z,102.02
2023-04-14T00:08:29.855Z,101.03
2023-04-14T00:09:19.921Z,98.72
2023-04-14T00:10:09.956Z,97.95
2023-04-14T00:11:00.050Z,102.14
2023-04-14T00:11:50.049Z,102.56
2023-04-14T00:12:40.150Z,98.23
2023-04-14T00:13:30.163Z,101.96
2023-04-14T00:14:20.210Z,99.20
2023-04-14T00:15:10.276Z,98.80
2023-04-14T00:16:00.354Z,102.69
2023-04-14T00:16:50.427Z,100.74
2023-04-14T00:17:40.848Z,100.47
2023-04-14T00:18:30.621Z,104.38
2023-04-14T00:19:20.638Z,101.10
2023-04-14T00:20:10.736Z,98.83
2023-04-14T00:21:00.777Z,106.62
2023-04-14T00:21:50.862Z,105.68
2023-04-14T00:22:40.933Z,101.20
2023-04-14T00:23:30.957Z,103.34
2023-04-14T00:24:21.050Z,105.61
2023-04-14T00:25:11.058Z,104.80
2023-04-14T00:26:01.099Z,103.67
2023-04-14T00:26:51.384Z,99.83
2023-04-14T00:27:41.501Z,103.22
2023-04-14T00:28:31.529Z,106.09
2023-04-14T00:29:21.597Z,102.81
2023-04-14T00:30:11.661Z,103.30
2023-04-14T00:31:01.850Z,103.49
2023-04-14T00:31:51.789Z,102.15
2023-04-14T00:32:41.933Z,101.25
2023-04-14T00:33:31.917Z,104.90
2023-04-14T00:34:22.017Z,105.97
2023-04-14T00:35:12.041Z,101.73
2023-04-14T00:36:02.309Z,105.22
2023-04-14T00:36:52.286Z,104.70
2023-04-14T00:37:42.391Z,102.84
2023-04-14T00:38:32.402Z,103.41
2023-04-14T00:39:22.468Z,99.05
2023-04-14T00:40:12.549Z,104.26
2023-04-14T00:41:02.611Z,101.63
2023-04-14T00:41:52.635Z,106.05
2023-04-14T00:42:42.781Z,104.01
2023-04-14T00:43:32.757Z,104.57
2023-04-14T00:44:22.834Z,99.55
2023-04-14T00:45:13.034Z,99.24
2023-04-14T00:46:03.168Z,100.45
2023-04-14T00:46:53.167Z,102.31
2023-04-14T00:47:43.316Z,99.56
2023-04-14T00:48:33.294Z,100.94
2023-04-14T00:49:23.367Z,98.89
2023-04-14T00:50:13.437Z,101.37
2023-04-14T00:51:03.518Z,97.01
2023-04-14T00:51:53.571Z,100.20
2023-04-14T00:52:43.659Z,97.07
2023-04-14T00:53:33.702Z,98.31
2023-04-14T00:54:23.746Z,98.83
2023-04-14T00:55:13.815Z,104.24
2023-04-14T00:56:03.893Z,96.22
2023-04-14T00:56:53.971Z,98.95
2023-04-14T00:57:44.046Z,103.38
2023-04-14T00:58:34.066Z,100.39
2023-04-14T00:59:24.153Z,101.70
2023-04-14T01:00:14.208Z,102.65
2023-04-14T01:01:04.428Z,101.07
2023-04-14T01:01:54.625Z,99.92
2023-04-14T01:02:44.718Z,99.39
2023-04-14T01:03:34.788Z,99.64
2023-04-14T01:04:29.259Z,103.65
2023-04-14T01:05:15.927Z,103.67
2023-04-14T01:06:04.730Z,103.74
2023-04-14T01:06:54.797Z,104.01
2023-04-14T01:07:44.876Z,104.79
2023-04-14T01:08:34.893Z,107.70
2023-04-14T01:09:24.976Z,107.24
2023-04-14T01:10:15.029Z,107.03
2023-04-14T01:11:05.129Z,109.42
2023-04-14T01:11:55.146Z,112.13
2023-04-14T01:12:45.236Z,105.29
2023-04-14T01:13:35.250Z,106.68
2023-04-14T01:14:25.321Z,105.91
2023-04-14T01:15:15.562Z,105.34
2023-04-14T01:16:05.702Z,102.57
2023-04-14T01:16:55.689Z,107.06
2023-04-14T01:17:45.813Z,106.82
2023-04-14T01:18:35.824Z,107.88
2023-04-14T01:19:25.888Z,105.98
2023-04-14T01:20:15.953Z,104.29
2023-04-14T01:21:06.038Z,104.63
2023-04-14T01:21:56.104Z,105.80
2023-04-14T01:22:46.206Z,102.31
2023-04-14T01:23:36.220Z,104.27
2023-04-14T01:24:26.570Z,107.37
2023-04-14T01:25:16.619Z,106.19
2023-04-14T01:26:06.674Z,106.26
2023-04-14T01:26:56.990Z,109.59
2023-04-14T01:27:47.090Z,107.75
2023-04-14T01:28:37.108Z,109.44
2023-04-14T01:29:27.435Z,108.72
2023-04-14T01:30:17.508Z,103.41
2023-04-14T01:31:07.674Z,105.02
2023-04-14T01:31:57.748Z,103.41
2023-04-14T01:32:47.782Z,107.13
2023-04-14T01:33:37.758Z,106.90
2023-04-14T01:34:27.834Z,105.88
2023-04-14T01:35:17.865Z,109.09
2023-04-14T01:36:07.983Z,102.89
2023-04-14T01:36:58.029Z,109.16
2023-04-14T01:37:48.108Z,106.40
2023-04-14T01:38:38.153Z,101.20
2023-04-14T01:39:28.181Z,107.55
2023-04-14T01:40:18.247Z,104.99
2023-04-14T01:41:08.352Z,100.20
2023-04-14T01:41:58.352Z,100.88
2023-04-14T01:42:48.444Z,107.89
2023-04-14T01:43:38.527Z,106.67
2023-04-14T01:44:28.517Z,101.53
2023-04-14T01:45:18.846Z,104.83
2023-04-14T01:46:08.945Z,103.52
2023-04-14T01:46:58.950Z,106.09
2023-04-14T01:47:49.377Z,105.37
2023-04-14T01:48:39.360Z,110.32
2023-04-14T01:49:29.470Z,108.78
2023-04-14T01:50:19.441Z,105.72
2023-04-14T01:51:09.529Z,104.01
2023-04-14T01:51:59.549Z,107.99
2023-04-14T01:52:49.661Z,105.87
2023-04-14T01:53:39.682Z,110.68
2023-04-14T01:54:29.769Z,106.97
2023-04-14T01:55:19.841Z,104.24
2023-04-14T01:56:09.897Z,104.66
2023-04-14T01:57:00.176Z,105.35
2023-04-14T01:57:50.271Z,109.20
2023-04-14T01:58:40.296Z,104.18
2023-04-14T01:59:30.376Z,106.42
2023-04-14T02:00:20.408Z,109.34
2023-04-14T02:01:10.537Z,108.13
2023-04-14T02:02:00.568Z,105.49
2023-04-14T02:02:50.713Z,109.23
2023-04-14T02:03:40.769Z,109.49
2023-04-14T02:04:30.712Z,108.67
2023-04-14T02:05:20.742Z,107.87
2023-04-14T02:06:10.821Z,109.91
2023-04-14T02:07:00.886Z,107.21
2023-04-14T02:07:50.993Z,107.89
2023-04-14T02:08:41.027Z,104.79
2023-04-14T02:09:31.095Z,100.61
2023-04-14T02:10:21.166Z,101.48
2023-04-14T02:11:11.235Z,105.02
2023-04-14T02:12:01.329Z,98.76
2023-04-14T02:12:51.581Z,105.04
2023-04-14T02:13:41.608Z,107.42
2023-04-14T02:14:31.685Z,107.52
2023-04-14T02:15:22.006Z,111.07
2023-04-14T02:16:12.092Z,107.16
2023-04-14T02:17:02.157Z,104.96
2023-04-14T02:17:52.507Z,107.05
2023-04-14T02:18:42.519Z,107.47
2023-04-14T02:19:32.590Z,106.44
2023-04-14T02:20:22.633Z,108.49
2023-04-14T02:21:12.651Z,108.80
2023-04-14T02:22:02.728Z,109.35
2023-04-14T02:22:52.816Z,106.65
2023-04-14T02:23:42.857Z,109.62
2023-04-14T02:24:32.931Z,103.53
2023-04-14T02:25:22.962Z,105.86
2023-04-14T02:26:13.032Z,109.18
2023-04-14T02:27:03.290Z,109.16
2023-04-14T02:27:53.370Z,105.57
2023-04-14T02:28:43.382Z,107.67
2023-04-14T02:29:33.450Z,108.93
2023-04-14T02:30:23.517Z,105.77
2023-04-14T02:31:13.667Z,108.21
2023-04-14T02:32:03.665Z,103.72
2023-04-14T02:32:53.756Z,111.15
2023-04-14T02:33:43.764Z,106.16
2023-04-14T02:34:34.382Z,108.65
2023-04-14T02:35:23.868Z,109.92
2023-04-14T02:36:13.935Z,111.21
2023-04-14T02:37:04.017Z,109.86
2023-04-14T02:37:54.107Z,109.82
2023-04-14T02:38:44.121Z,109.25
2023-04-14T02:39:34.199Z,104.50
2023-04-14T02:40:24.230Z,112.65
2023-04-14T02:41:14.265Z,107.38
2023-04-14T02:42:04.306Z,107.64
2023-04-14T02:42:54.352Z,107.83
2023-04-14T02:43:44.404Z,107.54
2023-04-14T02:44:34.492Z,106.65
2023-04-14T02:45:24.484Z,109.33
2023-04-14T02:46:14.638Z,108.32
2023-04-14T02:47:04.686Z,107.53
2023-04-14T02:47:54.800Z,113.40
2023-04-14T02:48:44.784Z,109.36
2023-04-14T02:49:34.856Z,104.22
2023-04-14T02:50:24.924Z,105.35
2023-04-14T02:51:15.006Z,105.03
2023-04-14T02:52:05.047Z,105.36
2023-04-14T02:52:55.135Z,107.23
2023-04-14T02:53:45.155Z,107.23
2023-04-14T02:54:35.231Z,106.41
2023-04-14T02:55:25.518Z,106.81
2023-04-14T02:56:15.596Z,112.30
2023-04-14T02:57:05.626Z,103.53
2023-04-14T02:57:55.764Z,107.24
2023-04-14T02:58:45.769Z,108.09
2023-04-14T02:59:35.862Z,103.64
2023-04-14T03:00:25.867Z,110.79
2023-04-14T03:01:16.013Z,110.40
2023-04-14T03:02:06.210Z,111.68
2023-04-14T03:02:56.218Z,107.58
2023-04-14T03:03:46.182Z,112.02
2023-04-14T03:04:36.227Z,114.64
2023-04-14T03:05:26.226Z,105.64
2023-04-14T03:06:16.311Z,107.31
2023-04-14T03:07:06.370Z,109.75
2023-04-14T03:07:56.471Z,107.24
2023-04-14T03:08:46.493Z,106.79
2023-04-14T03:09:36.570Z,107.88
2023-04-14T03:10:26.600Z,107.18
2023-04-14T03:11:16.676Z,105.26
2023-04-14T03:12:06.760Z,107.56
2023-04-14T03:12:56.853Z,110.43
2023-04-14T03:13:46.894Z,112.30
2023-04-14T03:14:36.960Z,112.36
2023-04-14T03:15:27.040Z,109.25
2023-04-14T03:16:17.164Z,105.05
2023-04-14T03:17:07.148Z,109.08
2023-04-14T03:17:57.570Z,108.62
2023-04-14T03:18:47.471Z,110.50
2023-04-14T03:19:37.545Z,105.87
2023-04-14T03:20:27.589Z,107.86
2023-04-14T03:21:17.664Z,108.24
2023-04-14T03:22:07.697Z,106.32
2023-04-14T03:22:57.793Z,112.87
2023-04-14T03:23:47.827Z,107.18
2023-04-14T03:24:37.903Z,111.37
2023-04-14T03:25:27.933Z,109.37
2023-04-14T03:26:18.015Z,109.68
2023-04-14T03:27:08.045Z,113.16
2023-04-14T03:27:58.150Z,108.13
2023-04-14T03:28:48.172Z,109.20
2023-04-14T03:29:38.243Z,112.35
2023-04-14T03:30:28.271Z,110.92
2023-04-14T03:31:18.348Z,110.78
2023-04-14T03:32:08.368Z,113.17
2023-04-14T03:32:58.531Z,111.71
2023-04-14T03:33:48.777Z,110.93
2023-04-14T03:34:38.817Z,114.29
2023-04-14T03:35:28.858Z,109.04
2023-04-14T03:36:18.889Z,112.03
2023-04-14T03:37:08.959Z,113.23
2023-04-14T03:37:59.011Z,118.00
2023-04-14T03:38:49.039Z,118.03
2023-04-14T03:39:39.167Z,118.33
2023-04-14T03:40:29.171Z,114.06
2023-04-14T03:41:19.203Z,117.10
2023-04-14T03:42:09.244Z,117.48
2023-04-14T03:42:59.337Z,115.72
2023-04-14T03:43:49.319Z,122.86
2023-04-14T03:44:39.362Z,118.20
2023-04-14T03:45:29.431Z,118.46
2023-04-14T03:46:19.544Z,120.19
2023-04-14T03:47:09.647Z,120.92
2023-04-14T03:47:59.740Z,119.88
2023-04-14T03:48:49.750Z,121.94
2023-04-14T03:49:39.822Z,119.75
2023-04-14T03:50:29.853Z,125.53
2023-04-14T03:51:19.933Z,120.24
2023-04-14T03:52:09.959Z,129.37
2023-04-14T03:53:00.030Z,123.86
2023-04-14T03:53:50.056Z,130.59
2023-04-14T03:54:40.086Z,131.80
2023-04-14T03:55:30.116Z,131.77
2023-04-14T03:56:20.206Z,135.84
2023-04-14T03:57:10.239Z,134.24
2023-04-14T03:58:00.296Z,131.30
2023-04-14T03:58:50.322Z,140.39
2023-04-14T03:59:40.397Z,135.52
2023-04-14T04:00:30.474Z,135.70
2023-04-14T04:01:20.542Z,131.68
2023-04-14T04:02:10.661Z,140.13
2023-04-14T04:03:00.855Z,134.70
2023-04-14T04:03:50.866Z,137.80
2023-04-14T04:04:40.872Z,138.60
2023-04-14T04:05:30.809Z,140.77
2023-04-14T04:06:20.855Z,142.51
2023-04-14T04:07:10.882Z,144.81
2023-04-14T04:08:00.999Z,140.07
2023-04-14T04:08:50.980Z,143.45
2023-04-14T04:09:41.078Z,146.35
2023-04-14T04:10:31.097Z,147.20
2023-04-14T04:11:21.187Z,148.09
2023-04-14T04:12:11.258Z,147.40
2023-04-14T04:13:01.355Z,148.67
2023-04-14T04:13:51.646Z,147.17
2023-04-14T04:14:41.692Z,151.27
2023-04-14T04:15:31.724Z,146.54
2023-04-14T04:16:21.846Z,147.23
2023-04-14T04:17:11.855Z,152.52
2023-04-14T04:18:02.042Z,151.69
2023-04-14T04:18:52.023Z,158.27
2023-04-14T04:19:42.085Z,158.70
2023-04-14T04:20:32.145Z,157.28
2023-04-14T04:21:22.225Z,159.18
2023-04-14T04:22:12.253Z,156.37
2023-04-14T04:23:02.309Z,157.63
2023-04-14T04:23:52.350Z,152.96
2023-04-14T04:24:42.416Z,152.49
2023-04-14T04:25:32.489Z,150.29
2023-04-14T04:26:22.570Z,152.35
2023-04-14T04:27:24.397Z,147.89
2023-04-14T04:28:03.674Z,148.00
2023-04-14T04:28:52.710Z,145.66
2023-04-14T04:29:42.858Z,145.38
2023-04-14T04:30:32.844Z,146.58
2023-04-14T04:31:22.974Z,143.26
2023-04-14T04:32:12.991Z,144.44
2023-04-14T04:33:03.052Z,144.60
2023-04-14T04:33:53.242Z,144.34
2023-04-14T04:34:43.294Z,141.87
2023-04-14T04:35:33.349Z,144.75
2023-04-14T04:36:23.382Z,139.62
2023-04-14T04:37:13.437Z,138.51
2023-04-14T04:38:03.476Z,141.67
2023-04-14T04:38:53.568Z,141.68
2023-04-14T04:39:43.608Z,135.66
2023-04-14T04:40:33.694Z,141.63
2023-04-14T04:41:23.724Z,139.77
2023-04-14T04:42:13.800Z,138.87
2023-04-14T04:43:03.836Z,139.42
2023-04-14T04:43:53.897Z,140.43
2023-04-14T04:44:43.929Z,138.47
2023-04-14T04:45:33.998Z,144.30
2023-04-14T04:46:24.096Z,129.67
2023-04-14T04:47:14.147Z,137.94
2023-04-14T04:48:04.309Z,137.44
2023-04-14T04:48:54.270Z,131.40
2023-04-14T04:49:44.303Z,137.27
2023-04-14T04:50:34.403Z,137.99
2023-04-14T04:51:24.410Z,138.62
2023-04-14T04:52:14.495Z,136.34
2023-04-14T04:53:04.535Z,132.08
2023-04-14T04:53:54.617Z,135.37
2023-04-14T04:54:44.643Z,133.44
2023-04-14T04:55:34.733Z,136.76
2023-04-14T04:56:24.748Z,136.48
2023-04-14T04:57:14.832Z,134.69
2023-04-14T04:58:04.865Z,135.02
2023-04-14T04:58:54.961Z,133.22
2023-04-14T04:59:44.995Z,134.79
2023-04-14T05:00:35.068Z,134.89
2023-04-14T05:01:25.139Z,135.82
2023-04-14T05:02:15.208Z,137.68
2023-04-14T05:03:05.456Z,137.48
2023-04-14T05:03:55.313Z,136.96
2023-04-14T05:04:45.383Z,135.37
2023-04-14T05:05:35.373Z,140.47
2023-04-14T05:06:25.503Z,137.86
2023-04-14T05:07:15.766Z,136.27
2023-04-14T05:08:05.796Z,129.52
2023-04-14T05:08:55.858Z,138.95
2023-04-14T05:09:45.892Z,133.03
2023-04-14T05:10:35.952Z,134.69
2023-04-14T05:11:26.029Z,132.69
2023-04-14T05:12:16.064Z,136.91
2023-04-14T05:13:06.142Z,138.32
2023-04-14T05:13:56.192Z,137.91
2023-04-14T05:14:46.237Z,134.77
2023-04-14T05:15:36.385Z,134.83
2023-04-14T05:16:26.403Z,135.32
2023-04-14T05:17:16.439Z,136.14
2023-04-14T05:18:06.592Z,136.06
2023-04-14T05:18:56.585Z,137.51
2023-04-14T05:19:46.740Z,136.51
2023-04-14T05:20:36.785Z,133.25
2023-04-14T05:21:26.879Z,133.07
2023-04-14T05:22:16.880Z,129.49
2023-04-14T05:23:06.964Z,128.47
2023-04-14T05:23:57.022Z,134.25
2023-04-14T05:24:47.049Z,135.21
2023-04-14T05:25:37.083Z,138.14
2023-04-14T05:26:49.203Z,136.44
2023-04-14T05:27:18.246Z,136.51
2023-04-14T05:28:07.278Z,136.79
2023-04-14T05:28:57.318Z,136.55
2023-04-14T05:29:47.351Z,136.88
2023-04-14T05:30:37.423Z,136.03
2023-04-14T05:31:27.473Z,140.60
2023-04-14T05:32:17.492Z,141.20
2023-04-14T05:33:07.860Z,139.65
2023-04-14T05:33:57.794Z,143.32
2023-04-14T05:34:47.828Z,134.81
2023-04-14T05:35:37.862Z,138.39
2023-04-14T05:36:27.908Z,141.19
2023-04-14T05:37:17.968Z,137.55
2023-04-14T05:38:08.019Z,136.14
2023-04-14T05:38:58.067Z,137.56
2023-04-14T05:39:48.100Z,134.47
2023-04-14T05:40:38.134Z,137.75
2023-04-14T05:41:28.248Z,143.11
2023-04-14T05:42:18.297Z,147.97
2023-04-14T05:43:08.333Z,147.67
2023-04-14T05:43:58.548Z,148.02
2023-04-14T05:44:48.437Z,147.30
2023-04-14T05:45:38.473Z,143.57
2023-04-14T05:46:28.606Z,139.67
2023-04-14T05:47:18.627Z,138.52
2023-04-14T05:48:08.816Z,140.15
2023-04-14T05:48:58.865Z,139.33
2023-04-14T05:49:48.781Z,135.65
2023-04-14T05:50:38.817Z,135.04
2023-04-14T05:51:28.885Z,132.78
2023-04-14T05:52:18.909Z,132.86
2023-04-14T05:53:09.172Z,135.36
2023-04-14T05:53:59.436Z,126.17
2023-04-14T05:54:49.234Z,127.60
2023-04-14T05:55:39.271Z,129.61
2023-04-14T05:56:29.347Z,131.02
2023-04-14T05:57:19.379Z,128.64
2023-04-14T05:58:09.454Z,125.46
2023-04-14T05:58:59.525Z,127.98
2023-04-14T05:59:49.563Z,127.20
2023-04-14T06:00:39.603Z,126.08
2023-04-14T06:01:29.684Z,126.66
2023-04-14T06:02:20.044Z,124.19
2023-04-14T06:03:10.288Z,127.24
2023-04-14T06:04:00.883Z,122.55
2023-04-14T06:04:50.347Z,120.08
2023-04-14T06:05:40.246Z,124.87
2023-04-14T06:06:30.316Z,127.82
2023-04-14T06:07:20.339Z,120.57
2023-04-14T06:08:10.390Z,123.23
2023-04-14T06:09:01.027Z,124.53
2023-04-14T06:09:50.706Z,121.14
2023-04-14T06:10:40.742Z,125.26
2023-04-14T06:11:30.786Z,127.35
2023-04-14T06:12:20.818Z,127.19
2023-04-14T06:13:10.899Z,121.76
2023-04-14T06:14:01.051Z,120.65
2023-04-14T06:14:50.997Z,123.29
2023-04-14T06:15:41.035Z,123.52
2023-04-14T06:16:31.225Z,119.89
2023-04-14T06:17:21.155Z,121.41
2023-04-14T06:18:11.217Z,119.69
2023-04-14T06:19:01.601Z,125.03
2023-04-14T06:19:51.321Z,118.14
2023-04-14T06:20:41.355Z,120.40
2023-04-14T06:21:31.393Z,121.06
2023-04-14T06:22:21.469Z,121.38
2023-04-14T06:23:11.547Z,118.04
2023-04-14T06:24:01.628Z,123.97
2023-04-14T06:24:51.669Z,120.88
2023-04-14T06:25:41.677Z,117.21
2023-04-14T06:26:31.828Z,121.53
2023-04-14T06:27:21.794Z,118.61
2023-04-14T06:28:11.871Z,120.09
2023-04-14T06:29:02.137Z,120.65
2023-04-14T06:29:51.983Z,121.93
2023-04-14T06:30:42.019Z,120.01
2023-04-14T06:31:32.148Z,121.79
2023-04-14T06:32:22.232Z,119.57
2023-04-14T06:33:12.201Z,120.85
2023-04-14T06:34:02.258Z,118.83
2023-04-14T06:34:53.455Z,121.26
2023-04-14T06:35:42.395Z,124.14
2023-04-14T06:36:32.475Z,117.66
2023-04-14T06:37:22.499Z,123.01
2023-04-14T06:38:12.576Z,121.35
2023-04-14T06:39:02.862Z,116.38
2023-04-14T06:39:52.656Z,117.37
2023-04-14T06:40:42.705Z,116.81
2023-04-14T06:41:32.738Z,118.56
2023-04-14T06:42:22.813Z,115.50
2023-04-14T06:43:12.860Z,114.04
2023-04-14T06:44:02.904Z,114.25
2023-04-14T06:44:52.941Z,114.42
2023-04-14T06:45:43.026Z,114.33
2023-04-14T06:46:33.159Z,114.55
2023-04-14T06:47:23.097Z,113.80
2023-04-14T06:48:13.108Z,114.65
2023-04-14T06:49:03.498Z,108.33
2023-04-14T06:49:53.273Z,112.25
2023-04-14T06:50:44.458Z,111.96
2023-04-14T06:51:33.388Z,116.61
2023-04-14T06:52:23.426Z,115.52
2023-04-14T06:53:13.477Z,115.95
2023-04-14T06:54:04.027Z,114.53
2023-04-14T06:54:53.583Z,114.41
2023-04-14T06:55:43.612Z,115.70
2023-04-14T06:56:33.716Z,116.04
2023-04-14T06:57:23.727Z,120.39
2023-04-14T06:58:13.839Z,116.32
2023-04-14T06:59:03.845Z,116.16
2023-04-14T06:59:53.894Z,121.06
2023-04-14T07:00:43.941Z,116.31
2023-04-14T07:01:34.084Z,124.12
2023-04-14T07:02:24.082Z,120.12
2023-04-14T07:03:14.100Z,122.06
2023-04-14T07:04:06.865Z,122.36
2023-04-14T07:04:54.195Z,125.58
2023-04-14T07:05:44.502Z,124.01
2023-04-14T07:06:34.572Z,124.19
2023-04-14T07:07:24.641Z,126.27
2023-04-14T07:08:14.717Z,128.53
2023-04-14T07:09:04.789Z,124.71
2023-04-14T07:09:54.955Z,125.31
2023-04-14T07:10:44.923Z,129.75
2023-04-14T07:11:34.958Z,128.20
2023-04-14T07:12:25.052Z,128.47
2023-04-14T07:13:15.113Z,127.15
2023-04-14T07:14:05.160Z,124.74
2023-04-14T07:14:55.403Z,128.28
2023-04-14T07:15:45.486Z,126.78
2023-04-14T07:16:35.526Z,130.40
2023-04-14T07:17:25.592Z,126.83
2023-04-14T07:18:15.591Z,128.01
2023-04-14T07:19:05.684Z,129.14
2023-04-14T07:19:55.708Z,127.74
2023-04-14T07:20:45.735Z,127.86
2023-04-14T07:21:35.817Z,129.71
2023-04-14T07:22:25.850Z,128.52
2023-04-14T07:23:15.927Z,131.53
2023-04-14T07:24:05.973Z,128.65
2023-04-14T07:24:56.016Z,135.51
2023-04-14T07:25:46.036Z,127.29
2023-04-14T07:26:36.116Z,131.28
2023-04-14T07:27:26.157Z,130.59
2023-04-14T07:28:16.238Z,129.40
2023-04-14T07:29:06.304Z,129.47
2023-04-14T07:29:56.339Z,130.77
2023-04-14T07:30:46.652Z,131.91
2023-04-14T07:31:36.774Z,130.43
2023-04-14T07:32:26.787Z,130.41
2023-04-14T07:33:16.809Z,128.14
2023-04-14T07:34:06.859Z,129.69
2023-04-14T07:34:58.795Z,131.65
2023-04-14T07:36:00.667Z,128.28
2023-04-14T07:36:37.996Z,128.34
2023-04-14T07:37:27.074Z,128.34
2023-04-14T07:38:17.134Z,129.84
2023-04-14T07:39:07.253Z,128.83
2023-04-14T07:39:57.248Z,129.25
2023-04-14T07:40:47.311Z,128.76
2023-04-14T07:41:37.391Z,129.36
2023-04-14T07:42:27.459Z,133.16
2023-04-14T07:43:17.537Z,130.61
2023-04-14T07:44:07.639Z,130.92
2023-04-14T07:44:57.921Z,135.38
2023-04-14T07:45:47.984Z,131.30
2023-04-14T07:46:38.095Z,128.36
2023-04-14T07:47:28.083Z,133.33
2023-04-14T07:48:18.116Z,135.51
2023-04-14T07:49:08.156Z,138.19
2023-04-14T07:49:58.196Z,134.17
2023-04-14T07:50:48.237Z,137.15
2023-04-14T07:51:38.313Z,132.64
2023-04-14T07:52:28.330Z,135.41
2023-04-14T07:53:18.404Z,130.43
2023-04-14T07:54:08.742Z,132.52
2023-04-14T07:54:58.770Z,133.55
2023-04-14T07:55:48.837Z,131.54
2023-04-14T07:56:38.917Z,132.24
2023-04-14T07:57:28.944Z,126.75
2023-04-14T07:58:19.030Z,130.53
2023-04-14T07:59:09.093Z,135.45
2023-04-14T07:59:59.100Z,130.93
2023-04-14T08:00:49.167Z,131.73
2023-04-14T08:01:39.274Z,133.64
2023-04-14T08:02:29.420Z,131.36
2023-04-14T08:03:19.463Z,130.08
2023-04-14T08:04:09.625Z,128.48
2023-04-14T08:04:59.470Z,134.75
2023-04-14T08:05:49.649Z,133.63
2023-04-14T08:06:39.494Z,133.56
2023-04-14T08:07:29.734Z,135.82
2023-04-14T08:08:19.807Z,132.42
2023-04-14T08:09:09.902Z,135.15
2023-04-14T08:09:59.936Z,131.24
2023-04-14T08:10:49.955Z,132.20
2023-04-14T08:11:40.066Z,129.79
2023-04-14T08:12:30.065Z,136.33
2023-04-14T08:13:20.146Z,132.84
2023-04-14T08:14:10.247Z,134.16
2023-04-14T08:15:00.403Z,131.52
2023-04-14T08:15:50.378Z,129.68
2023-04-14T08:16:40.512Z,136.78
2023-04-14T08:17:30.458Z,131.06
2023-04-14T08:18:20.462Z,130.62
2023-04-14T08:19:10.552Z,133.53
2023-04-14T08:20:00.590Z,134.69
2023-04-14T08:20:50.835Z,133.29
2023-04-14T08:21:40.877Z,130.49
2023-04-14T08:22:30.897Z,128.56
2023-04-14T08:23:20.994Z,134.08
2023-04-14T08:24:11.052Z,131.44
2023-04-14T08:25:01.086Z,131.90
2023-04-14T08:25:51.153Z,131.74
2023-04-14T08:26:41.231Z,131.00
2023-04-14T08:27:31.302Z,126.80
2023-04-14T08:28:21.374Z,135.73
2023-04-14T08:29:11.412Z,130.70
2023-04-14T08:30:01.438Z,127.84
2023-04-14T08:30:51.532Z,133.54
2023-04-14T08:31:41.654Z,130.22
2023-04-14T08:32:31.680Z,127.84
2023-04-14T08:33:21.731Z,134.65
2023-04-14T08:34:11.735Z,131.42
2023-04-14T08:35:38.677Z,130.04
2023-04-14T08:35:58.922Z,129.77
2023-04-14T08:36:41.898Z,130.12
2023-04-14T08:37:31.999Z,130.33
2023-04-14T08:38:22.034Z,130.16
2023-04-14T08:39:12.132Z,131.45
2023-04-14T08:40:02.139Z,130.59
2023-04-14T08:40:52.241Z,131.92
2023-04-14T08:41:42.270Z,130.81
2023-04-14T08:42:32.525Z,129.37
2023-04-14T08:43:22.569Z,127.85
2023-04-14T08:44:12.617Z,127.33
2023-04-14T08:45:02.651Z,132.05
2023-04-14T08:45:52.766Z,128.12
2023-04-14T08:46:42.788Z,136.16
2023-04-14T08:47:32.907Z,127.91
2023-04-14T08:48:25.041Z,128.42
2023-04-14T08:49:12.940Z,129.45
2023-04-14T08:50:02.959Z,130.78
2023-04-14T08:50:53.029Z,131.04
2023-04-14T08:51:43.098Z,130.38
2023-04-14T08:52:33.177Z,129.30
2023-04-14T08:53:23.205Z,126.49
2023-04-14T08:54:13.299Z,131.52
2023-04-14T08:55:03.328Z,128.60
2023-04-14T08:55:53.369Z,127.38
2023-04-14T08:56:43.392Z,129.52
2023-04-14T08:57:33.467Z,128.54
2023-04-14T08:58:23.536Z,125.90
2023-04-14T08:59:13.637Z,127.67
2023-04-14T09:00:03.666Z,130.04
2023-04-14T09:00:53.851Z,131.72
2023-04-14T09:01:43.903Z,124.84
2023-04-14T09:02:34.016Z,125.27
2023-04-14T09:03:24.072Z,130.38
2023-04-14T09:04:14.268Z,130.40
2023-04-14T09:05:03.990Z,130.49
2023-04-14T09:05:54.110Z,128.26
2023-04-14T09:06:44.134Z,130.49
2023-04-14T09:07:34.210Z,128.80
2023-04-14T09:08:24.233Z,128.31
2023-04-14T09:09:14.335Z,127.77
2023-04-14T09:10:04.373Z,128.27
2023-04-14T09:10:54.453Z,125.22
2023-04-14T09:11:44.482Z,126.50
2023-04-14T09:12:34.573Z,133.06
2023-04-14T09:13:24.580Z,129.74
2023-04-14T09:14:14.690Z,125.89
2023-04-14T09:15:04.904Z,127.17
2023-04-14T09:15:54.942Z,127.03
2023-04-14T09:16:45.108Z,126.83
2023-04-14T09:17:35.080Z,125.92
2023-04-14T09:18:25.128Z,127.96
2023-04-14T09:19:15.180Z,126.81
2023-04-14T09:20:39.373Z,127.87
2023-04-14T09:21:49.845Z,126.85
2023-04-14T09:21:53.782Z,126.27
2023-04-14T09:22:36.353Z,126.82
2023-04-14T09:23:25.449Z,127.45
2023-04-14T09:24:15.519Z,126.49
2023-04-14T09:25:05.591Z,128.42
2023-04-14T09:25:55.641Z,128.09
2023-04-14T09:26:45.708Z,126.23
2023-04-14T09:27:35.743Z,124.99
2023-04-14T09:28:25.903Z,128.92
2023-04-14T09:29:15.989Z,130.23
2023-04-14T09:30:06.041Z,126.00
2023-04-14T09:30:56.129Z,127.14
2023-04-14T09:31:46.147Z,129.29
2023-04-14T09:32:36.252Z,125.95
2023-04-14T09:33:26.237Z,127.43
2023-04-14T09:34:16.415Z,124.46
2023-04-14T09:35:06.349Z,129.48
2023-04-14T09:35:56.418Z,128.82
2023-04-14T09:36:46.495Z,127.68
2023-04-14T09:37:36.527Z,125.20
2023-04-14T09:38:26.616Z,128.37
2023-04-14T09:39:16.649Z,124.49
2023-04-14T09:40:06.685Z,126.95
2023-04-14T09:40:57.196Z,127.57
2023-04-14T09:41:46.770Z,126.06
2023-04-14T09:42:36.808Z,127.16
2023-04-14T09:43:26.970Z,129.74
2023-04-14T09:44:16.980Z,124.95
2023-04-14T09:45:06.996Z,124.68
2023-04-14T09:45:57.127Z,123.10
2023-04-14T09:46:47.210Z,124.65
2023-04-14T09:47:37.217Z,124.78
2023-04-14T09:48:27.274Z,123.79
2023-04-14T09:49:17.314Z,126.77
2023-04-14T09:50:07.369Z,122.02
2023-04-14T09:50:57.661Z,127.10
2023-04-14T09:51:47.738Z,125.47
2023-04-14T09:52:37.762Z,127.98
2023-04-14T09:53:27.858Z,122.16
2023-04-14T09:54:17.888Z,127.36
2023-04-14T09:55:07.922Z,120.86
2023-04-14T09:55:57.960Z,126.20
2023-04-14T09:56:47.994Z,125.77
2023-04-14T09:57:38.077Z,123.92
2023-04-14T09:58:29.276Z,127.00
2023-04-14T09:59:18.206Z,125.48
2023-04-14T10:00:08.235Z,124.15
2023-04-14T10:00:58.297Z,123.73
2023-04-14T10:01:48.510Z,126.37
2023-04-14T10:02:38.473Z,124.14
2023-04-14T10:03:28.634Z,123.78
2023-04-14T10:04:18.563Z,123.51
2023-04-14T10:05:08.712Z,125.66
2023-04-14T10:05:58.649Z,123.46
2023-04-14T10:06:48.756Z,126.24
2023-04-14T10:07:38.784Z,123.24
2023-04-14T10:08:28.839Z,124.10
2023-04-14T10:09:18.935Z,119.29
2023-04-14T10:10:08.979Z,124.54
2023-04-14T10:10:59.286Z,126.22
2023-04-14T10:11:49.373Z,122.40
2023-04-14T10:12:39.425Z,124.32
2023-04-14T10:13:29.446Z,125.23
2023-04-14T10:14:19.518Z,122.45
2023-04-14T10:15:09.596Z,122.50
2023-04-14T10:15:59.735Z,125.34
2023-04-14T10:16:49.684Z,121.39
2023-04-14T10:17:39.774Z,123.52
2023-04-14T10:18:29.773Z,122.27
2023-04-14T10:19:19.839Z,123.03
2023-04-14T10:20:10.145Z,127.84
2023-04-14T10:21:00.182Z,124.46
2023-04-14T10:21:50.218Z,122.53
2023-04-14T10:22:41.265Z,124.83
2023-04-14T10:23:30.365Z,121.35
2023-04-14T10:24:20.397Z,126.55
2023-04-14T10:25:10.424Z,124.05